sensor_id;sensor_type;location;lat;lon;timestamp;pressure;altitude;pressure_sealevel;temperature;humidity
65276;BME280;51875;49.994;14.052;2023-03-25T00:00:00;97463.72;;;10.80;100.00
65276;BME280;51875;49.994;14.052;2023-03-25T00:01:21;97467.59;;;10.51;100.00
65276;BME280;51875;49.994;14.052;2023-03-25T00:02:41;97465.91;;;10.50;100.00
65276;BME280;51875;49.994;14.052;2023-03-25T00:04:00;97472.59;;;10.57;100.00
65276;BME280;51875;49.994;14.052;2023-03-25T00:05:20;97466.44;;;10.58;100.00
65276;BME280;51875;49.994;14.052;2023-03-25T00:06:36;97461.84;;;10.63;100.00
65276;BME280;51875;49.994;14.052;2023-03-25T00:07:51;97466.06;;;10.47;100.00
65276;BME280;51875;49.994;14.052;2023-03-25T00:09:07;97461.25;;;10.56;100.00
65276;BME280;51875;49.994;14.052;2023-03-25T00:10:23;97461.63;;;10.68;100.00
65276;BME280;51875;49.994;14.052;2023-03-25T00:11:38;97456.81;;;10.38;100.00
65276;BME280;51875;49.994;14.052;2023-03-25T00:12:54;97455.53;;;10.48;100.00
65276;BME280;51875;49.994;14.052;2023-03-25T00:14:09;97464.22;;;10.49;100.00
65276;BME280;51875;49.994;14.052;2023-03-25T00:15:26;97460.47;;;10.54;100.00
65276;BME280;51875;49.994;14.052;2023-03-25T00:16:44;97452.41;;;10.38;100.00
65276;BME280;51875;49.994;14.052;2023-03-25T00:18:03;97454.94;;;10.41;100.00
65276;BME280;51875;49.994;14.052;2023-03-25T00:19:19;97463.94;;;10.34;100.00
65276;BME280;51875;49.994;14.052;2023-03-25T00:20:35;97456.50;;;10.45;100.00
65276;BME280;51875;49.994;14.052;2023-03-25T00:21:51;97456.34;;;10.49;100.00
65276;BME280;51875;49.994;14.052;2023-03-25T00:23:07;97453.03;;;10.45;100.00
65276;BME280;51875;49.994;14.052;2023-03-25T00:24:28;97457.78;;;10.35;100.00
65276;BME280;51875;49.994;14.052;2023-03-25T00:25:43;97458.84;;;10.52;100.00
65276;BME280;51875;49.994;14.052;2023-03-25T00:26:59;97459.75;;;10.51;100.00
65276;BME280;51875;49.994;14.052;2023-03-25T00:28:15;97460.09;;;10.43;100.00
65276;BME280;51875;49.994;14.052;2023-03-25T00:29:30;97458.06;;;10.50;100.00
65276;BME280;51875;49.994;14.052;2023-03-25T00:30:46;97451.19;;;10.47;100.00
65276;BME280;51875;49.994;14.052;2023-03-25T00:32:02;97454.56;;;10.28;100.00
65276;BME280;51875;49.994;14.052;2023-03-25T00:33:17;97448.88;;;10.39;100.00
65276;BME280;51875;49.994;14.052;2023-03-25T00:34:33;97448.03;;;10.39;100.00
65276;BME280;51875;49.994;14.052;2023-03-25T00:35:56;97451.56;;;10.38;100.00
65276;BME280;51875;49.994;14.052;2023-03-25T00:37:15;97449.22;;;10.52;100.00
65276;BME280;51875;49.994;14.052;2023-03-25T00:38:33;97455.09;;;10.37;100.00
65276;BME280;51875;49.994;14.052;2023-03-25T00:39:49;97448.69;;;10.44;100.00
65276;BME280;51875;49.994;14.052;2023-03-25T00:41:24;97455.53;;;10.48;100.00
65276;BME280;51875;49.994;14.052;2023-03-25T00:42:40;97453.41;;;10.36;100.00
65276;BME280;51875;49.994;14.052;2023-03-25T00:43:59;97450.25;;;10.27;100.00
65276;BME280;51875;49.994;14.052;2023-03-25T00:45:15;97442.81;;;10.39;100.00
65276;BME280;51875;49.994;14.052;2023-03-25T00:46:32;97448.78;;;10.42;100.00
65276;BME280;51875;49.994;14.052;2023-03-25T00:47:48;97445.56;;;10.56;100.00
65276;BME280;51875;49.994;14.052;2023-03-25T00:49:03;97446.63;;;10.52;100.00
65276;BME280;51875;49.994;14.052;2023-03-25T00:50:19;97453.09;;;10.43;100.00
65276;BME280;51875;49.994;14.052;2023-03-25T00:51:36;97449.28;;;10.51;100.00
65276;BME280;51875;49.994;14.052;2023-03-25T00:52:52;97445.41;;;10.59;100.00
65276;BME280;51875;49.994;14.052;2023-03-25T00:54:10;97439.22;;;10.81;100.00
65276;BME280;51875;49.994;14.052;2023-03-25T00:55:26;97443.72;;;10.58;100.00
65276;BME280;51875;49.994;14.052;2023-03-25T00:56:41;97442.16;;;10.54;100.00
65276;BME280;51875;49.994;14.052;2023-03-25T00:57:57;97439.53;;;10.54;100.00
65276;BME280;51875;49.994;14.052;2023-03-25T00:59:13;97448.84;;;10.62;100.00
65276;BME280;51875;49.994;14.052;2023-03-25T01:00:28;97452.88;;;10.69;100.00
65276;BME280;51875;49.994;14.052;2023-03-25T01:01:44;97445.56;;;10.56;100.00
65276;BME280;51875;49.994;14.052;2023-03-25T01:03:02;97443.59;;;10.41;100.00
65276;BME280;51875;49.994;14.052;2023-03-25T01:04:18;97435.00;;;10.37;100.00
65276;BME280;51875;49.994;14.052;2023-03-25T01:05:34;97437.31;;;10.45;100.00
65276;BME280;51875;49.994;14.052;2023-03-25T01:06:49;97433.25;;;10.38;100.00
65276;BME280;51875;49.994;14.052;2023-03-25T01:08:06;97425.59;;;10.33;100.00
65276;BME280;51875;49.994;14.052;2023-03-25T01:09:22;97427.00;;;10.42;100.00
65276;BME280;51875;49.994;14.052;2023-03-25T01:10:38;97433.13;;;10.62;100.00
65276;BME280;51875;49.994;14.052;2023-03-25T01:11:54;97442.69;;;10.63;100.00
65276;BME280;51875;49.994;14.052;2023-03-25T01:13:09;97447.09;;;10.60;100.00
65276;BME280;51875;49.994;14.052;2023-03-25T01:14:25;97434.00;;;10.41;100.00
65276;BME280;51875;49.994;14.052;2023-03-25T01:15:43;97434.38;;;10.53;100.00
65276;BME280;51875;49.994;14.052;2023-03-25T01:16:59;97444.13;;;10.49;100.00
65276;BME280;51875;49.994;14.052;2023-03-25T01:18:15;97439.09;;;10.44;100.00
65276;BME280;51875;49.994;14.052;2023-03-25T01:19:31;97442.16;;;10.54;100.00
65276;BME280;51875;49.994;14.052;2023-03-25T01:20:46;97433.25;;;10.58;100.00
65276;BME280;51875;49.994;14.052;2023-03-25T01:22:02;97425.47;;;10.57;100.00
65276;BME280;51875;49.994;14.052;2023-03-25T01:23:18;97426.06;;;10.64;100.00
65276;BME280;51875;49.994;14.052;2023-03-25T01:24:33;97433.81;;;10.65;100.00
65276;BME280;51875;49.994;14.052;2023-03-25T01:25:49;97429.50;;;10.64;100.00
65276;BME280;51875;49.994;14.052;2023-03-25T01:27:05;97423.91;;;10.53;100.00
65276;BME280;51875;49.994;14.052;2023-03-25T01:28:20;97429.41;;;10.47;100.00
65276;BME280;51875;49.994;14.052;2023-03-25T01:29:36;97428.00;;;10.58;100.00
65276;BME280;51875;49.994;14.052;2023-03-25T01:30:52;97428.28;;;10.52;100.00
65276;BME280;51875;49.994;14.052;2023-03-25T01:32:07;97421.22;;;10.54;100.00
65276;BME280;51875;49.994;14.052;2023-03-25T01:33:23;97423.78;;;10.56;100.00
65276;BME280;51875;49.994;14.052;2023-03-25T01:34:38;97412.66;;;10.51;100.00
65276;BME280;51875;49.994;14.052;2023-03-25T01:35:58;97417.97;;;10.49;100.00
65276;BME280;51875;49.994;14.052;2023-03-25T01:37:14;97419.66;;;10.50;100.00
65276;BME280;51875;49.994;14.052;2023-03-25T01:38:29;97417.97;;;10.49;100.00
65276;BME280;51875;49.994;14.052;2023-03-25T01:39:45;97417.59;;;10.36;100.00
65276;BME280;51875;49.994;14.052;2023-03-25T01:41:01;97414.41;;;10.29;100.00
65276;BME280;51875;49.994;14.052;2023-03-25T01:42:17;97418.59;;;10.34;100.00
65276;BME280;51875;49.994;14.052;2023-03-25T01:43:34;97424.63;;;10.36;100.00
65276;BME280;51875;49.994;14.052;2023-03-25T01:46:10;97421.69;;;10.43;100.00
65276;BME280;51875;49.994;14.052;2023-03-25T01:47:28;97421.56;;;10.47;100.00
65276;BME280;51875;49.994;14.052;2023-03-25T01:48:43;97416.53;;;10.42;100.00
65276;BME280;51875;49.994;14.052;2023-03-25T01:49:59;97415.91;;;10.35;100.00
65276;BME280;51875;49.994;14.052;2023-03-25T01:51:19;97420.09;;;10.39;100.00
65276;BME280;51875;49.994;14.052;2023-03-25T01:52:36;97424.47;;;10.59;100.00
65276;BME280;51875;49.994;14.052;2023-03-25T01:53:52;97430.81;;;10.54;100.00
65276;BME280;51875;49.994;14.052;2023-03-25T01:55:08;97428.28;;;10.52;100.00
65276;BME280;51875;49.994;14.052;2023-03-25T01:56:32;97430.53;;;10.41;100.00
65276;BME280;51875;49.994;14.052;2023-03-25T01:57:52;97427.94;;;10.39;100.00
65276;BME280;51875;49.994;14.052;2023-03-25T01:59:09;97426.16;;;10.41;100.00
65276;BME280;51875;49.994;14.052;2023-03-25T02:00:25;97427.56;;;10.49;100.00
65276;BME280;51875;49.994;14.052;2023-03-25T02:01:42;97415.31;;;10.28;100.00
65276;BME280;51875;49.994;14.052;2023-03-25T02:03:00;97418.88;;;10.48;100.00
65276;BME280;51875;49.994;14.052;2023-03-25T02:04:30;97414.06;;;10.37;100.00
65276;BME280;51875;49.994;14.052;2023-03-25T02:07:07;97409.63;;;10.39;100.00
65276;BME280;51875;49.994;14.052;2023-03-25T02:08:24;97414.44;;;10.50;100.00
65276;BME280;51875;49.994;14.052;2023-03-25T02:09:40;97408.13;;;10.54;100.00
65276;BME280;51875;49.994;14.052;2023-03-25T02:10:57;97415.69;;;10.60;100.00
65276;BME280;51875;49.994;14.052;2023-03-25T02:12:12;97422.97;;;10.54;100.00
65276;BME280;51875;49.994;14.052;2023-03-25T02:13:28;97415.34;;;10.49;100.00
65276;BME280;51875;49.994;14.052;2023-03-25T02:14:44;97425.59;;;10.33;100.00
65276;BME280;51875;49.994;14.052;2023-03-25T02:16:09;97420.69;;;10.25;100.00
65276;BME280;51875;49.994;14.052;2023-03-25T02:27:39;97408.69;;;10.40;100.00
65276;BME280;51875;49.994;14.052;2023-03-25T02:29:35;97411.28;;;10.42;100.00
65276;BME280;51875;49.994;14.052;2023-03-25T02:39:12;97406.97;;;10.20;100.00
65276;BME280;51875;49.994;14.052;2023-03-25T02:43:31;97396.63;;;10.38;100.00
65276;BME280;51875;49.994;14.052;2023-03-25T02:44:54;97395.19;;;10.30;100.00
65276;BME280;51875;49.994;14.052;2023-03-25T02:46:15;97405.06;;;10.24;100.00
65276;BME280;51875;49.994;14.052;2023-03-25T02:47:34;97396.75;;;10.14;100.00
65276;BME280;51875;49.994;14.052;2023-03-25T02:50:20;97402.78;;;10.16;100.00
65276;BME280;51875;49.994;14.052;2023-03-25T02:52:04;97399.19;;;9.98;100.00
65276;BME280;51875;49.994;14.052;2023-03-25T02:53:30;97395.44;;;10.03;100.00
65276;BME280;51875;49.994;14.052;2023-03-25T02:54:49;97394.88;;;10.17;100.00
65276;BME280;51875;49.994;14.052;2023-03-25T02:56:09;97395.66;;;10.20;100.00
65276;BME280;51875;49.994;14.052;2023-03-25T02:57:27;97396.28;;;10.25;100.00
65276;BME280;51875;49.994;14.052;2023-03-25T02:58:44;97393.81;;;10.22;100.00
65276;BME280;51875;49.994;14.052;2023-03-25T03:00:03;97393.50;;;10.09;100.00
65276;BME280;51875;49.994;14.052;2023-03-25T03:01:25;97393.63;;;10.06;100.00
65276;BME280;51875;49.994;14.052;2023-03-25T03:02:45;97392.66;;;10.08;100.00
65276;BME280;51875;49.994;14.052;2023-03-25T03:04:04;97389.31;;;10.04;100.00
65276;BME280;51875;49.994;14.052;2023-03-25T03:05:29;97391.88;;;10.06;100.00
65276;BME280;51875;49.994;14.052;2023-03-25T03:06:45;97388.34;;;9.86;100.00
65276;BME280;51875;49.994;14.052;2023-03-25T03:11:42;97385.97;;;9.80;100.00
65276;BME280;51875;49.994;14.052;2023-03-25T03:14:58;97382.34;;;9.41;100.00
65276;BME280;51875;49.994;14.052;2023-03-25T03:19:45;97394.22;;;9.49;100.00
65276;BME280;51875;49.994;14.052;2023-03-25T03:21:07;97397.03;;;9.44;100.00
65276;BME280;51875;49.994;14.052;2023-03-25T03:22:40;97398.94;;;9.61;100.00
65276;BME280;51875;49.994;14.052;2023-03-25T03:24:12;97393.25;;;9.51;100.00
65276;BME280;51875;49.994;14.052;2023-03-25T03:27:54;97394.22;;;9.49;100.00
65276;BME280;51875;49.994;14.052;2023-03-25T03:32:44;97400.38;;;9.25;100.00
65276;BME280;51875;49.994;14.052;2023-03-25T03:33:39;97403.47;;;9.35;100.00
65276;BME280;51875;49.994;14.052;2023-03-25T03:35:02;97406.31;;;9.29;100.00
65276;BME280;51875;49.994;14.052;2023-03-25T03:36:22;97406.06;;;9.35;100.00
65276;BME280;51875;49.994;14.052;2023-03-25T03:37:43;97409.84;;;9.50;100.00
65276;BME280;51875;49.994;14.052;2023-03-25T03:39:07;97407.25;;;9.28;100.00
65276;BME280;51875;49.994;14.052;2023-03-25T03:40:29;97412.13;;;9.37;100.00
65276;BME280;51875;49.994;14.052;2023-03-25T03:41:49;97404.50;;;9.31;100.00
65276;BME280;51875;49.994;14.052;2023-03-25T03:43:12;97410.94;;;9.44;100.00
65276;BME280;51875;49.994;14.052;2023-03-25T03:44:36;97408.31;;;9.44;100.00
65276;BME280;51875;49.994;14.052;2023-03-25T03:45:58;97413.56;;;9.44;100.00
65276;BME280;51875;49.994;14.052;2023-03-25T03:47:17;97416.28;;;9.41;100.00
65276;BME280;51875;49.994;14.052;2023-03-25T03:48:46;97415.81;;;9.31;100.00
65276;BME280;51875;49.994;14.052;2023-03-25T03:50:10;97414.16;;;9.29;100.00
65276;BME280;51875;49.994;14.052;2023-03-25T03:51:31;97412.13;;;9.37;100.00
65276;BME280;51875;49.994;14.052;2023-03-25T03:53:13;97411.91;;;9.42;100.00
65276;BME280;51875;49.994;14.052;2023-03-25T03:54:34;97413.72;;;9.40;100.00
65276;BME280;51875;49.994;14.052;2023-03-25T03:55:57;97410.63;;;9.30;100.00
65276;BME280;51875;49.994;14.052;2023-03-25T03:57:18;97410.50;;;9.33;100.00
65276;BME280;51875;49.994;14.052;2023-03-25T03:58:39;97408.19;;;9.25;100.00
65276;BME280;51875;49.994;14.052;2023-03-25T04:00:08;97414.13;;;9.30;100.00
65276;BME280;51875;49.994;14.052;2023-03-25T04:01:34;97416.59;;;9.33;100.00
65276;BME280;51875;49.994;14.052;2023-03-25T04:03:07;97411.72;;;9.46;100.00
65276;BME280;51875;49.994;14.052;2023-03-25T04:04:29;97409.25;;;9.43;100.00
65276;BME280;51875;49.994;14.052;2023-03-25T04:05:56;97411.13;;;9.40;100.00
65276;BME280;51875;49.994;14.052;2023-03-25T04:07:17;97403.72;;;9.51;100.00
65276;BME280;51875;49.994;14.052;2023-03-25T04:08:42;97407.69;;;9.60;100.00
65276;BME280;51875;49.994;14.052;2023-03-25T04:10:24;97400.81;;;9.80;100.00
65276;BME280;51875;49.994;14.052;2023-03-25T04:12:16;97399.03;;;9.59;100.00
65276;BME280;51875;49.994;14.052;2023-03-25T04:13:41;97404.13;;;9.63;100.00
65276;BME280;51875;49.994;14.052;2023-03-25T04:15:02;97394.34;;;9.23;100.00
65276;BME280;51875;49.994;14.052;2023-03-25T04:16:19;97402.66;;;9.11;100.00
65276;BME280;51875;49.994;14.052;2023-03-25T04:17:35;97402.91;;;9.04;100.00
65276;BME280;51875;49.994;14.052;2023-03-25T04:18:50;97399.44;;;9.04;100.00
65276;BME280;51875;49.994;14.052;2023-03-25T04:20:12;97401.16;;;9.05;100.00
65276;BME280;51875;49.994;14.052;2023-03-25T04:21:29;97400.66;;;8.95;100.00
65276;BME280;51875;49.994;14.052;2023-03-25T04:22:44;97400.91;;;8.89;100.00
65276;BME280;51875;49.994;14.052;2023-03-25T04:24:00;97393.69;;;8.96;100.00
65276;BME280;51875;49.994;14.052;2023-03-25T04:25:17;97402.97;;;8.79;100.00
65276;BME280;51875;49.994;14.052;2023-03-25T04:26:36;97396.88;;;8.80;100.00
65276;BME280;51875;49.994;14.052;2023-03-25T04:27:52;97403.19;;;8.74;100.00
65276;BME280;51875;49.994;14.052;2023-03-25T04:29:13;97398.75;;;8.76;100.00
65276;BME280;51875;49.994;14.052;2023-03-25T04:30:28;97408.91;;;8.84;100.00
65276;BME280;51875;49.994;14.052;2023-03-25T04:31:45;97403.50;;;8.89;100.00
65276;BME280;51875;49.994;14.052;2023-03-25T04:33:04;97407.53;;;8.74;100.00
65276;BME280;51875;49.994;14.052;2023-03-25T04:34:19;97406.59;;;8.76;100.00
65276;BME280;51875;49.994;14.052;2023-03-25T04:35:35;97411.56;;;8.59;100.00
65276;BME280;51875;49.994;14.052;2023-03-25T04:36:52;97400.00;;;8.66;100.00
65276;BME280;51875;49.994;14.052;2023-03-25T04:38:08;97409.19;;;8.53;100.00
65276;BME280;51875;49.994;14.052;2023-03-25T04:39:24;97407.25;;;8.58;100.00
65276;BME280;51875;49.994;14.052;2023-03-25T04:40:40;97406.59;;;8.76;100.00
65276;BME280;51875;49.994;14.052;2023-03-25T04:41:55;97405.53;;;8.57;100.00
65276;BME280;51875;49.994;14.052;2023-03-25T04:43:15;97413.63;;;8.49;100.00
65276;BME280;51875;49.994;14.052;2023-03-25T04:44:31;97412.03;;;8.45;100.00
65276;BME280;51875;49.994;14.052;2023-03-25T04:45:53;97416.69;;;8.62;100.00
65276;BME280;51875;49.994;14.052;2023-03-25T04:47:12;97412.75;;;8.74;100.00
65276;BME280;51875;49.994;14.052;2023-03-25T04:48:30;97401.06;;;8.60;100.00
65276;BME280;51875;49.994;14.052;2023-03-25T04:49:47;97405.97;;;8.70;100.00
65276;BME280;51875;49.994;14.052;2023-03-25T04:51:02;97404.19;;;8.70;100.00
65276;BME280;51875;49.994;14.052;2023-03-25T04:52:18;97411.72;;;8.78;100.00
65276;BME280;51875;49.994;14.052;2023-03-25T04:53:34;97405.84;;;8.73;100.00
65276;BME280;51875;49.994;14.052;2023-03-25T04:54:49;97409.19;;;8.76;100.00
65276;BME280;51875;49.994;14.052;2023-03-25T04:56:07;97409.19;;;8.76;100.00
65276;BME280;51875;49.994;14.052;2023-03-25T04:57:30;97412.06;;;8.93;100.00
65276;BME280;51875;49.994;14.052;2023-03-25T04:58:46;97404.34;;;8.89;100.00
65276;BME280;51875;49.994;14.052;2023-03-25T05:00:03;97403.94;;;9.00;100.00
65276;BME280;51875;49.994;14.052;2023-03-25T05:01:23;97399.25;;;8.86;100.00
65276;BME280;51875;49.994;14.052;2023-03-25T05:02:50;97398.34;;;8.87;100.00
65276;BME280;51875;49.994;14.052;2023-03-25T05:04:08;97414.91;;;9.10;100.00
65276;BME280;51875;49.994;14.052;2023-03-25T05:05:26;97412.78;;;8.96;100.00
65276;BME280;51875;49.994;14.052;2023-03-25T05:06:44;97416.03;;;9.03;100.00
65276;BME280;51875;49.994;14.052;2023-03-25T05:08:01;97416.41;;;9.16;100.00
65276;BME280;51875;49.994;14.052;2023-03-25T05:09:19;97421.25;;;9.25;100.00
65276;BME280;51875;49.994;14.052;2023-03-25T05:10:36;97415.72;;;9.33;100.00
65276;BME280;51875;49.994;14.052;2023-03-25T05:11:53;97420.78;;;9.15;100.00
65276;BME280;51875;49.994;14.052;2023-03-25T05:13:10;97423.25;;;9.18;100.00
65276;BME280;51875;49.994;14.052;2023-03-25T05:14:26;97420.53;;;9.22;100.00
65276;BME280;51875;49.994;14.052;2023-03-25T05:15:41;97411.59;;;9.05;100.00
65276;BME280;51875;49.994;14.052;2023-03-25T05:16:57;97427.34;;;9.26;100.00
65276;BME280;51875;49.994;14.052;2023-03-25T05:18:15;97437.16;;;9.43;100.00
65276;BME280;51875;49.994;14.052;2023-03-25T05:19:31;97438.09;;;9.40;100.00
65276;BME280;51875;49.994;14.052;2023-03-25T05:20:49;97422.41;;;9.63;100.00
65276;BME280;51875;49.994;14.052;2023-03-25T05:22:05;97425.09;;;9.39;100.00
65276;BME280;51875;49.994;14.052;2023-03-25T05:23:22;97426.56;;;9.46;100.00
65276;BME280;51875;49.994;14.052;2023-03-25T05:24:38;97420.34;;;9.49;100.00
65276;BME280;51875;49.994;14.052;2023-03-25T05:25:53;97429.88;;;9.50;100.00
65276;BME280;51875;49.994;14.052;2023-03-25T05:27:10;97426.44;;;9.49;100.00
65276;BME280;51875;49.994;14.052;2023-03-25T05:28:27;97418.56;;;9.51;100.00
65276;BME280;51875;49.994;14.052;2023-03-25T05:29:42;97421.03;;;9.54;100.00
65276;BME280;51875;49.994;14.052;2023-03-25T05:30:59;97423.88;;;9.47;100.00
65276;BME280;51875;49.994;14.052;2023-03-25T05:32:14;97429.66;;;9.56;100.00
65276;BME280;51875;49.994;14.052;2023-03-25T05:33:37;97422.97;;;9.49;100.00
65276;BME280;51875;49.994;14.052;2023-03-25T05:35:00;97430.22;;;9.64;100.00
65276;BME280;51875;49.994;14.052;2023-03-25T05:36:16;97430.22;;;9.64;100.00
65276;BME280;51875;49.994;14.052;2023-03-25T05:37:32;97430.31;;;9.61;100.00
65276;BME280;51875;49.994;14.052;2023-03-25T05:38:47;97427.28;;;9.72;100.00
65276;BME280;51875;49.994;14.052;2023-03-25T05:40:04;97428.91;;;9.74;100.00
65276;BME280;51875;49.994;14.052;2023-03-25T05:41:22;97435.03;;;9.73;100.00
65276;BME280;51875;49.994;14.052;2023-03-25T05:42:46;97436.81;;;9.73;100.00
65276;BME280;51875;49.994;14.052;2023-03-25T05:44:08;97430.91;;;9.68;100.00
65276;BME280;51875;49.994;14.052;2023-03-25T05:45:24;97434.44;;;9.67;100.00
65276;BME280;51875;49.994;14.052;2023-03-25T05:46:40;97432.97;;;9.82;100.00
65276;BME280;51875;49.994;14.052;2023-03-25T05:47:55;97422.28;;;9.66;100.00
65276;BME280;51875;49.994;14.052;2023-03-25T05:49:13;97435.13;;;9.72;100.00
65276;BME280;51875;49.994;14.052;2023-03-25T05:50:29;97436.09;;;9.90;100.00
65276;BME280;51875;49.994;14.052;2023-03-25T05:51:45;97434.50;;;9.87;100.00
65276;BME280;51875;49.994;14.052;2023-03-25T05:53:19;97430.69;;;9.74;100.00
65276;BME280;51875;49.994;14.052;2023-03-25T05:54:38;97434.84;;;9.78;100.00
65276;BME280;51875;49.994;14.052;2023-03-25T05:55:56;97437.41;;;9.80;100.00
65276;BME280;51875;49.994;14.052;2023-03-25T05:57:12;97441.06;;;9.75;100.00
65276;BME280;51875;49.994;14.052;2023-03-25T05:58:27;97436.00;;;9.93;100.00
65276;BME280;51875;49.994;14.052;2023-03-25T05:59:43;97443.91;;;9.92;100.00
65276;BME280;51875;49.994;14.052;2023-03-25T06:00:59;97441.34;;;9.90;100.00
65276;BME280;51875;49.994;14.052;2023-03-25T06:02:18;97439.03;;;9.82;100.00
65276;BME280;51875;49.994;14.052;2023-03-25T06:03:34;97444.25;;;9.82;100.00
65276;BME280;51875;49.994;14.052;2023-03-25T06:04:50;97442.34;;;9.87;100.00
65276;BME280;51875;49.994;14.052;2023-03-25T06:06:07;97449.19;;;9.90;100.00
65276;BME280;51875;49.994;14.052;2023-03-25T06:07:28;97446.84;;;9.84;100.00
65276;BME280;51875;49.994;14.052;2023-03-25T06:08:49;97445.72;;;9.89;100.00
65276;BME280;51875;49.994;14.052;2023-03-25T06:10:05;97446.84;;;9.84;100.00
65276;BME280;51875;49.994;14.052;2023-03-25T06:11:21;97446.38;;;9.95;100.00
65276;BME280;51875;49.994;14.052;2023-03-25T06:12:37;97452.59;;;9.92;100.00
65276;BME280;51875;49.994;14.052;2023-03-25T06:13:53;97449.41;;;9.85;100.00
65276;BME280;51875;49.994;14.052;2023-03-25T06:15:13;97452.34;;;9.98;100.00
65276;BME280;51875;49.994;14.052;2023-03-25T06:16:30;97440.63;;;9.86;100.00
65276;BME280;51875;49.994;14.052;2023-03-25T06:17:47;97447.56;;;9.87;100.00
65276;BME280;51875;49.994;14.052;2023-03-25T06:19:03;97434.91;;;9.99;100.00
65276;BME280;51875;49.994;14.052;2023-03-25T06:20:18;97445.13;;;10.03;100.00
65276;BME280;51875;49.994;14.052;2023-03-25T06:21:34;97438.06;;;10.06;100.00
65276;BME280;51875;49.994;14.052;2023-03-25T06:22:50;97441.56;;;9.85;100.00
65276;BME280;51875;49.994;14.052;2023-03-25T06:24:06;97441.22;;;9.93;100.00
65276;BME280;51875;49.994;14.052;2023-03-25T06:25:27;97434.31;;;9.92;100.00
65276;BME280;51875;49.994;14.052;2023-03-25T06:26:51;97434.34;;;10.11;100.00
65276;BME280;51875;49.994;14.052;2023-03-25T06:28:16;97437.38;;;10.02;100.00
65276;BME280;51875;49.994;14.052;2023-03-25T06:29:38;97441.81;;;10.00;100.00
65276;BME280;51875;49.994;14.052;2023-03-25T06:31:01;97434.44;;;10.10;98.04
65276;BME280;51875;49.994;14.052;2023-03-25T06:32:30;97446.22;;;10.20;98.47
65276;BME280;51875;49.994;14.052;2023-03-25T06:33:53;97445.63;;;10.13;98.89
65276;BME280;51875;49.994;14.052;2023-03-25T06:35:21;97450.53;;;10.21;98.31
65276;BME280;51875;49.994;14.052;2023-03-25T06:36:40;97442.41;;;10.27;97.91
65276;BME280;51875;49.994;14.052;2023-03-25T06:37:56;97445.06;;;10.48;95.74
65276;BME280;51875;49.994;14.052;2023-03-25T06:39:15;97438.31;;;10.42;98.20
65276;BME280;51875;49.994;14.052;2023-03-25T06:40:31;97446.22;;;10.41;97.24
65276;BME280;51875;49.994;14.052;2023-03-25T06:42:27;97447.91;;;10.63;97.65
65276;BME280;51875;49.994;14.052;2023-03-25T06:44:01;97447.38;;;10.54;93.75
65276;BME280;51875;49.994;14.052;2023-03-25T06:45:20;97445.72;;;10.72;91.72
65276;BME280;51875;49.994;14.052;2023-03-25T06:47:10;97444.50;;;10.60;91.58
65276;BME280;51875;49.994;14.052;2023-03-25T06:48:40;97449.91;;;10.35;92.35
65276;BME280;51875;49.994;14.052;2023-03-25T06:49:59;97455.63;;;10.45;92.63
65276;BME280;51875;49.994;14.052;2023-03-25T06:51:20;97449.91;;;10.35;93.24
65276;BME280;51875;49.994;14.052;2023-03-25T06:52:57;97448.28;;;10.32;90.52
65276;BME280;51875;49.994;14.052;2023-03-25T06:54:27;97443.13;;;10.52;90.47
65276;BME280;51875;49.994;14.052;2023-03-25T06:56:12;97447.69;;;10.48;92.60
65276;BME280;51875;49.994;14.052;2023-03-25T06:57:35;97451.47;;;10.41;90.96
65276;BME280;51875;49.994;14.052;2023-03-25T06:58:59;97458.50;;;10.59;92.02
65276;BME280;51875;49.994;14.052;2023-03-25T07:02:05;97457.22;;;10.49;91.29
65276;BME280;51875;49.994;14.052;2023-03-25T07:03:39;97451.16;;;10.68;89.16
65276;BME280;51875;49.994;14.052;2023-03-25T07:05:25;97447.34;;;10.56;91.52
65276;BME280;51875;49.994;14.052;2023-03-25T07:06:46;97445.56;;;10.56;90.54
65276;BME280;51875;49.994;14.052;2023-03-25T07:08:23;97448.25;;;10.55;89.12
65276;BME280;51875;49.994;14.052;2023-03-25T07:09:50;97450.09;;;10.72;86.78
65276;BME280;51875;49.994;14.052;2023-03-25T07:11:35;97450.66;;;10.59;88.66
65276;BME280;51875;49.994;14.052;2023-03-25T07:12:57;97442.94;;;10.56;88.88
65276;BME280;51875;49.994;14.052;2023-03-25T07:14:32;97443.59;;;10.62;89.19
65276;BME280;51875;49.994;14.052;2023-03-25T07:16:09;97451.88;;;10.71;86.07
65276;BME280;51875;49.994;14.052;2023-03-25T07:17:55;97451.75;;;10.74;88.12
65276;BME280;51875;49.994;14.052;2023-03-25T07:19:40;97454.19;;;10.58;89.40
65276;BME280;51875;49.994;14.052;2023-03-25T07:21:34;97467.94;;;10.43;91.63
65276;BME280;51875;49.994;14.052;2023-03-25T07:23:28;97462.59;;;10.03;100.00
65276;BME280;51875;49.994;14.052;2023-03-25T07:24:49;97462.66;;;9.58;100.00
65276;BME280;51875;49.994;14.052;2023-03-25T07:26:14;97468.09;;;9.74;100.00
65276;BME280;51875;49.994;14.052;2023-03-25T07:27:35;97479.59;;;9.70;100.00
65276;BME280;51875;49.994;14.052;2023-03-25T07:29:10;97466.09;;;9.59;100.00
65276;BME280;51875;49.994;14.052;2023-03-25T07:30:31;97477.34;;;9.39;100.00
65276;BME280;51875;49.994;14.052;2023-03-25T07:32:07;97475.41;;;9.44;100.00
65276;BME280;51875;49.994;14.052;2023-03-25T07:33:27;97471.59;;;9.53;100.00
65276;BME280;51875;49.994;14.052;2023-03-25T07:34:52;97472.97;;;9.39;100.00
65276;BME280;51875;49.994;14.052;2023-03-25T07:38:10;97475.66;;;9.60;100.00
65276;BME280;51875;49.994;14.052;2023-03-25T07:39:37;97476.38;;;9.64;100.00
65276;BME280;51875;49.994;14.052;2023-03-25T07:41:12;97476.03;;;9.73;100.00